sensor_id;sensor_type;location;lat;lon;timestamp;temperature;humidity
20839;DHT22;10580;51.092;6.828;2023-06-22T00:01:04;22.30;99.90
20839;DHT22;10580;51.092;6.828;2023-06-22T00:03:30;22.30;99.90
20839;DHT22;10580;51.092;6.828;2023-06-22T00:05:56;22.30;99.90
20839;DHT22;10580;51.092;6.828;2023-06-22T00:08:22;22.30;99.90
20839;DHT22;10580;51.092;6.828;2023-06-22T00:10:47;22.20;99.90
20839;DHT22;10580;51.092;6.828;2023-06-22T00:13:14;22.20;99.90
20839;DHT22;10580;51.092;6.828;2023-06-22T00:15:40;22.20;99.90
20839;DHT22;10580;51.092;6.828;2023-06-22T00:18:07;22.20;99.90
20839;DHT22;10580;51.092;6.828;2023-06-22T00:20:33;22.10;99.90
20839;DHT22;10580;51.092;6.828;2023-06-22T00:23:02;22.20;99.90
20839;DHT22;10580;51.092;6.828;2023-06-22T00:25:33;22.10;99.90
20839;DHT22;10580;51.092;6.828;2023-06-22T00:27:59;22.10;99.90
20839;DHT22;10580;51.092;6.828;2023-06-22T00:30:25;22.10;99.90
20839;DHT22;10580;51.092;6.828;2023-06-22T00:32:50;22.10;99.90
20839;DHT22;10580;51.092;6.828;2023-06-22T00:35:16;22.10;99.90
20839;DHT22;10580;51.092;6.828;2023-06-22T00:37:41;22.10;99.90
20839;DHT22;10580;51.092;6.828;2023-06-22T00:40:08;22.10;99.90
20839;DHT22;10580;51.092;6.828;2023-06-22T00:42:37;22.10;99.90
20839;DHT22;10580;51.092;6.828;2023-06-22T00:45:02;22.10;99.90
20839;DHT22;10580;51.092;6.828;2023-06-22T00:47:28;22.10;99.90
20839;DHT22;10580;51.092;6.828;2023-06-22T00:49:54;22.10;99.90
20839;DHT22;10580;51.092;6.828;2023-06-22T00:52:21;22.00;99.90
20839;DHT22;10580;51.092;6.828;2023-06-22T00:54:50;22.10;99.90
20839;DHT22;10580;51.092;6.828;2023-06-22T00:57:17;22.10;99.90
20839;DHT22;10580;51.092;6.828;2023-06-22T00:59:44;22.00;99.90
20839;DHT22;10580;51.092;6.828;2023-06-22T01:02:10;22.00;99.90
20839;DHT22;10580;51.092;6.828;2023-06-22T01:04:37;22.00;99.90
20839;DHT22;10580;51.092;6.828;2023-06-22T01:07:31;22.00;99.90
20839;DHT22;10580;51.092;6.828;2023-06-22T01:12:45;22.00;99.90
20839;DHT22;10580;51.092;6.828;2023-06-22T01:15:25;21.90;99.90
20839;DHT22;10580;51.092;6.828;2023-06-22T01:17:53;21.90;99.90
20839;DHT22;10580;51.092;6.828;2023-06-22T01:20:21;21.90;99.90
20839;DHT22;10580;51.092;6.828;2023-06-22T01:28:49;21.90;99.90
20839;DHT22;10580;51.092;6.828;2023-06-22T01:31:27;21.80;99.90
20839;DHT22;10580;51.092;6.828;2023-06-22T01:38:07;21.80;99.90
20839;DHT22;10580;51.092;6.828;2023-06-22T01:40:46;21.80;99.90
20839;DHT22;10580;51.092;6.828;2023-06-22T01:46:21;21.70;99.90
20839;DHT22;10580;51.092;6.828;2023-06-22T01:48:47;21.60;99.90
20839;DHT22;10580;51.092;6.828;2023-06-22T01:51:13;21.60;99.90
20839;DHT22;10580;51.092;6.828;2023-06-22T01:53:39;21.60;99.90
20839;DHT22;10580;51.092;6.828;2023-06-22T01:56:05;21.50;99.90
20839;DHT22;10580;51.092;6.828;2023-06-22T01:58:32;21.50;99.90
20839;DHT22;10580;51.092;6.828;2023-06-22T02:01:23;21.50;99.90
20839;DHT22;10580;51.092;6.828;2023-06-22T02:04:24;21.40;99.90
20839;DHT22;10580;51.092;6.828;2023-06-22T02:06:56;21.40;99.90
20839;DHT22;10580;51.092;6.828;2023-06-22T02:09:23;21.40;99.90
20839;DHT22;10580;51.092;6.828;2023-06-22T02:11:52;21.40;99.90
20839;DHT22;10580;51.092;6.828;2023-06-22T02:14:22;21.40;99.90
20839;DHT22;10580;51.092;6.828;2023-06-22T02:16:47;21.30;99.90
20839;DHT22;10580;51.092;6.828;2023-06-22T02:19:13;21.30;99.90
20839;DHT22;10580;51.092;6.828;2023-06-22T02:21:41;21.30;99.90
20839;DHT22;10580;51.092;6.828;2023-06-22T02:24:06;21.30;99.90
20839;DHT22;10580;51.092;6.828;2023-06-22T02:26:32;21.20;99.90
20839;DHT22;10580;51.092;6.828;2023-06-22T02:28:58;21.20;99.90
20839;DHT22;10580;51.092;6.828;2023-06-22T02:31:23;21.20;99.90
20839;DHT22;10580;51.092;6.828;2023-06-22T02:33:58;21.20;99.90
20839;DHT22;10580;51.092;6.828;2023-06-22T02:36:24;21.20;99.90
20839;DHT22;10580;51.092;6.828;2023-06-22T02:38:52;21.20;99.90
20839;DHT22;10580;51.092;6.828;2023-06-22T02:41:17;21.20;99.90
20839;DHT22;10580;51.092;6.828;2023-06-22T02:43:46;21.20;99.90
20839;DHT22;10580;51.092;6.828;2023-06-22T02:46:12;21.20;99.90
20839;DHT22;10580;51.092;6.828;2023-06-22T02:48:39;21.20;99.90
20839;DHT22;10580;51.092;6.828;2023-06-22T02:51:05;21.20;99.90
20839;DHT22;10580;51.092;6.828;2023-06-22T02:53:30;21.20;99.90
20839;DHT22;10580;51.092;6.828;2023-06-22T02:55:57;21.20;99.90
20839;DHT22;10580;51.092;6.828;2023-06-22T02:58:22;21.20;99.90
20839;DHT22;10580;51.092;6.828;2023-06-22T03:00:49;21.20;99.90
20839;DHT22;10580;51.092;6.828;2023-06-22T03:03:19;21.20;99.90
20839;DHT22;10580;51.092;6.828;2023-06-22T03:05:44;21.20;99.90
20839;DHT22;10580;51.092;6.828;2023-06-22T03:08:10;21.20;99.90
20839;DHT22;10580;51.092;6.828;2023-06-22T03:10:35;21.20;99.90
20839;DHT22;10580;51.092;6.828;2023-06-22T03:13:01;21.20;99.90
20839;DHT22;10580;51.092;6.828;2023-06-22T03:15:27;21.20;99.90
20839;DHT22;10580;51.092;6.828;2023-06-22T03:17:55;21.20;99.90
20839;DHT22;10580;51.092;6.828;2023-06-22T03:20:20;21.20;99.90
20839;DHT22;10580;51.092;6.828;2023-06-22T03:22:46;21.20;99.90
20839;DHT22;10580;51.092;6.828;2023-06-22T03:25:12;21.20;99.90
20839;DHT22;10580;51.092;6.828;2023-06-22T03:27:43;21.20;99.90
20839;DHT22;10580;51.092;6.828;2023-06-22T03:30:11;21.20;99.90
20839;DHT22;10580;51.092;6.828;2023-06-22T03:32:37;21.20;99.90
20839;DHT22;10580;51.092;6.828;2023-06-22T03:40:06;21.20;99.90
20839;DHT22;10580;51.092;6.828;2023-06-22T03:42:36;21.20;99.90
20839;DHT22;10580;51.092;6.828;2023-06-22T03:47:28;21.20;99.90
20839;DHT22;10580;51.092;6.828;2023-06-22T03:49:54;21.20;99.90
20839;DHT22;10580;51.092;6.828;2023-06-22T03:52:21;21.20;99.90
20839;DHT22;10580;51.092;6.828;2023-06-22T03:54:47;21.20;99.90
20839;DHT22;10580;51.092;6.828;2023-06-22T03:57:13;21.20;99.90
20839;DHT22;10580;51.092;6.828;2023-06-22T03:59:39;21.20;99.90
20839;DHT22;10580;51.092;6.828;2023-06-22T04:02:04;21.30;99.90
20839;DHT22;10580;51.092;6.828;2023-06-22T04:04:30;21.20;99.90
20839;DHT22;10580;51.092;6.828;2023-06-22T04:06:55;21.30;99.90
20839;DHT22;10580;51.092;6.828;2023-06-22T04:09:21;21.30;99.90
20839;DHT22;10580;51.092;6.828;2023-06-22T04:11:47;21.30;99.90
20839;DHT22;10580;51.092;6.828;2023-06-22T04:14:13;21.40;99.90
20839;DHT22;10580;51.092;6.828;2023-06-22T04:16:38;21.30;99.90
20839;DHT22;10580;51.092;6.828;2023-06-22T04:19:04;21.40;99.90
20839;DHT22;10580;51.092;6.828;2023-06-22T04:21:31;21.40;99.90
20839;DHT22;10580;51.092;6.828;2023-06-22T04:24:09;21.40;99.90
20839;DHT22;10580;51.092;6.828;2023-06-22T04:26:34;21.40;99.90
20839;DHT22;10580;51.092;6.828;2023-06-22T04:29:05;21.40;99.90
20839;DHT22;10580;51.092;6.828;2023-06-22T04:31:32;21.50;99.90
20839;DHT22;10580;51.092;6.828;2023-06-22T04:34:05;21.50;99.90
20839;DHT22;10580;51.092;6.828;2023-06-22T04:36:35;21.50;99.90
20839;DHT22;10580;51.092;6.828;2023-06-22T04:39:09;21.40;99.90
20839;DHT22;10580;51.092;6.828;2023-06-22T04:41:41;21.50;99.90
20839;DHT22;10580;51.092;6.828;2023-06-22T04:44:11;21.50;99.90
20839;DHT22;10580;51.092;6.828;2023-06-22T04:46:37;21.50;99.90
20839;DHT22;10580;51.092;6.828;2023-06-22T04:49:12;21.50;99.90
20839;DHT22;10580;51.092;6.828;2023-06-22T04:51:42;21.50;99.90
20839;DHT22;10580;51.092;6.828;2023-06-22T04:54:08;21.50;99.90
20839;DHT22;10580;51.092;6.828;2023-06-22T04:56:34;21.60;99.90
20839;DHT22;10580;51.092;6.828;2023-06-22T04:59:00;21.60;99.90
20839;DHT22;10580;51.092;6.828;2023-06-22T05:01:29;21.60;99.90
20839;DHT22;10580;51.092;6.828;2023-06-22T05:03:56;21.60;99.90
20839;DHT22;10580;51.092;6.828;2023-06-22T05:06:23;21.70;99.90
20839;DHT22;10580;51.092;6.828;2023-06-22T05:08:56;21.80;99.90
20839;DHT22;10580;51.092;6.828;2023-06-22T05:11:26;21.80;99.90
20839;DHT22;10580;51.092;6.828;2023-06-22T05:13:52;21.80;99.90
20839;DHT22;10580;51.092;6.828;2023-06-22T05:16:18;21.90;99.90
20839;DHT22;10580;51.092;6.828;2023-06-22T05:18:54;22.00;99.90
20839;DHT22;10580;51.092;6.828;2023-06-22T05:21:24;22.00;99.90
20839;DHT22;10580;51.092;6.828;2023-06-22T05:23:50;22.10;99.90
20839;DHT22;10580;51.092;6.828;2023-06-22T05:26:16;22.20;99.90
20839;DHT22;10580;51.092;6.828;2023-06-22T05:28:42;22.20;99.90
20839;DHT22;10580;51.092;6.828;2023-06-22T05:31:12;22.30;99.90
20839;DHT22;10580;51.092;6.828;2023-06-22T05:33:37;22.30;99.90
20839;DHT22;10580;51.092;6.828;2023-06-22T05:36:05;22.40;99.90
20839;DHT22;10580;51.092;6.828;2023-06-22T05:38:30;22.40;99.90
20839;DHT22;10580;51.092;6.828;2023-06-22T05:40:56;22.40;99.90
20839;DHT22;10580;51.092;6.828;2023-06-22T05:43:58;22.40;99.90
20839;DHT22;10580;51.092;6.828;2023-06-22T05:56:42;22.20;99.90
20839;DHT22;10580;51.092;6.828;2023-06-22T05:59:08;22.20;99.90
20839;DHT22;10580;51.092;6.828;2023-06-22T06:01:34;22.10;99.90
20839;DHT22;10580;51.092;6.828;2023-06-22T06:04:02;22.10;99.90
20839;DHT22;10580;51.092;6.828;2023-06-22T06:06:27;22.00;99.90
20839;DHT22;10580;51.092;6.828;2023-06-22T06:08:54;22.00;99.90
20839;DHT22;10580;51.092;6.828;2023-06-22T06:11:20;21.90;99.90
20839;DHT22;10580;51.092;6.828;2023-06-22T06:13:46;21.70;99.90
20839;DHT22;10580;51.092;6.828;2023-06-22T06:16:12;21.50;99.90
20839;DHT22;10580;51.092;6.828;2023-06-22T06:18:38;21.40;1.00
20839;DHT22;10580;51.092;6.828;2023-06-22T06:21:03;21.20;18.20
20839;DHT22;10580;51.092;6.828;2023-06-22T06:23:29;21.00;99.90
20839;DHT22;10580;51.092;6.828;2023-06-22T06:25:54;20.80;1.00
20839;DHT22;10580;51.092;6.828;2023-06-22T06:28:20;20.70;1.00
20839;DHT22;10580;51.092;6.828;2023-06-22T06:30:46;20.60;1.00
20839;DHT22;10580;51.092;6.828;2023-06-22T06:33:30;20.50;1.00
20839;DHT22;10580;51.092;6.828;2023-06-22T06:36:08;20.50;1.00
20839;DHT22;10580;51.092;6.828;2023-06-22T06:42:28;20.50;1.00
20839;DHT22;10580;51.092;6.828;2023-06-22T06:48:25;20.40;1.00
20839;DHT22;10580;51.092;6.828;2023-06-22T06:50:53;20.40;99.90
20839;DHT22;10580;51.092;6.828;2023-06-22T06:53:49;20.40;99.90
20839;DHT22;10580;51.092;6.828;2023-06-22T06:56:27;20.50;99.90
20839;DHT22;10580;51.092;6.828;2023-06-22T06:58:53;20.60;99.90
20839;DHT22;10580;51.092;6.828;2023-06-22T07:01:19;20.70;99.90
20839;DHT22;10580;51.092;6.828;2023-06-22T07:03:54;20.90;99.90
20839;DHT22;10580;51.092;6.828;2023-06-22T07:06:19;21.00;99.90
20839;DHT22;10580;51.092;6.828;2023-06-22T07:08:45;21.10;99.90
20839;DHT22;10580;51.092;6.828;2023-06-22T07:11:11;21.20;1.00
20839;DHT22;10580;51.092;6.828;2023-06-22T07:13:39;21.30;99.90
20839;DHT22;10580;51.092;6.828;2023-06-22T07:16:05;21.40;99.90
20839;DHT22;10580;51.092;6.828;2023-06-22T07:18:30;21.40;99.90
20839;DHT22;10580;51.092;6.828;2023-06-22T07:20:56;21.50;99.90
20839;DHT22;10580;51.092;6.828;2023-06-22T07:23:21;21.70;1.00
20839;DHT22;10580;51.092;6.828;2023-06-22T07:25:50;21.90;1.00
20839;DHT22;10580;51.092;6.828;2023-06-22T07:32:18;22.80;1.00
20839;DHT22;10580;51.092;6.828;2023-06-22T07:34:42;23.70;1.00
20839;DHT22;10580;51.092;6.828;2023-06-22T07:37:09;24.20;99.90
20839;DHT22;10580;51.092;6.828;2023-06-22T08:23:12;26.80;1.00
20839;DHT22;10580;51.092;6.828;2023-06-22T08:25:38;27.10;1.00
20839;DHT22;10580;51.092;6.828;2023-06-22T08:28:24;27.30;1.00
20839;DHT22;10580;51.092;6.828;2023-06-22T08:30:49;27.60;1.00
20839;DHT22;10580;51.092;6.828;2023-06-22T08:33:21;27.60;1.00
20839;DHT22;10580;51.092;6.828;2023-06-22T08:35:54;27.70;1.00
20839;DHT22;10580;51.092;6.828;2023-06-22T08:38:20;27.90;1.00
20839;DHT22;10580;51.092;6.828;2023-06-22T08:43:30;28.40;1.00
20839;DHT22;10580;51.092;6.828;2023-06-22T08:45:55;28.80;1.00
20839;DHT22;10580;51.092;6.828;2023-06-22T08:48:21;28.90;1.00
20839;DHT22;10580;51.092;6.828;2023-06-22T08:50:46;28.90;1.00
20839;DHT22;10580;51.092;6.828;2023-06-22T08:53:12;28.80;1.00
20839;DHT22;10580;51.092;6.828;2023-06-22T08:55:38;28.80;1.00
20839;DHT22;10580;51.092;6.828;2023-06-22T08:58:03;28.80;1.00
20839;DHT22;10580;51.092;6.828;2023-06-22T09:00:29;28.80;1.00
20839;DHT22;10580;51.092;6.828;2023-06-22T09:03:10;28.80;1.00
20839;DHT22;10580;51.092;6.828;2023-06-22T09:12:24;28.90;1.00
20839;DHT22;10580;51.092;6.828;2023-06-22T09:14:57;28.90;1.00
20839;DHT22;10580;51.092;6.828;2023-06-22T09:17:23;29.30;1.00
20839;DHT22;10580;51.092;6.828;2023-06-22T09:19:49;29.30;1.00
20839;DHT22;10580;51.092;6.828;2023-06-22T09:22:21;29.10;1.00
20839;DHT22;10580;51.092;6.828;2023-06-22T09:24:46;28.90;1.00
20839;DHT22;10580;51.092;6.828;2023-06-22T09:30:38;29.40;1.00
20839;DHT22;10580;51.092;6.828;2023-06-22T09:33:03;29.60;1.00
20839;DHT22;10580;51.092;6.828;2023-06-22T09:35:29;29.50;1.00
20839;DHT22;10580;51.092;6.828;2023-06-22T09:37:54;29.50;1.00
20839;DHT22;10580;51.092;6.828;2023-06-22T09:40:20;29.70;1.00
20839;DHT22;10580;51.092;6.828;2023-06-22T09:42:45;29.40;1.00
20839;DHT22;10580;51.092;6.828;2023-06-22T09:45:11;29.10;1.00
20839;DHT22;10580;51.092;6.828;2023-06-22T09:47:37;29.00;1.00
20839;DHT22;10580;51.092;6.828;2023-06-22T09:50:06;28.90;1.00
20839;DHT22;10580;51.092;6.828;2023-06-22T09:52:31;29.00;1.00
20839;DHT22;10580;51.092;6.828;2023-06-22T09:54:57;28.80;1.00
20839;DHT22;10580;51.092;6.828;2023-06-22T09:57:23;28.60;1.00
20839;DHT22;10580;51.092;6.828;2023-06-22T09:59:48;28.60;1.00
20839;DHT22;10580;51.092;6.828;2023-06-22T10:02:14;28.60;1.00
20839;DHT22;10580;51.092;6.828;2023-06-22T10:04:43;28.50;1.00
20839;DHT22;10580;51.092;6.828;2023-06-22T10:07:08;28.30;1.00
20839;DHT22;10580;51.092;6.828;2023-06-22T10:09:34;28.10;1.00
20839;DHT22;10580;51.092;6.828;2023-06-22T10:11:59;27.90;1.00
20839;DHT22;10580;51.092;6.828;2023-06-22T10:14:25;27.80;1.00
20839;DHT22;10580;51.092;6.828;2023-06-22T10:16:52;27.70;1.00
20839;DHT22;10580;51.092;6.828;2023-06-22T10:19:18;27.50;1.00
20839;DHT22;10580;51.092;6.828;2023-06-22T10:21:44;27.20;1.00
20839;DHT22;10580;51.092;6.828;2023-06-22T10:24:09;27.10;1.00
20839;DHT22;10580;51.092;6.828;2023-06-22T10:26:35;26.80;1.00
20839;DHT22;10580;51.092;6.828;2023-06-22T10:29:10;26.60;1.00
20839;DHT22;10580;51.092;6.828;2023-06-22T10:31:36;26.50;1.00
20839;DHT22;10580;51.092;6.828;2023-06-22T10:34:04;26.50;1.00
20839;DHT22;10580;51.092;6.828;2023-06-22T10:36:57;26.40;1.00
20839;DHT22;10580;51.092;6.828;2023-06-22T10:39:32;26.20;1.00
20839;DHT22;10580;51.092;6.828;2023-06-22T10:42:16;25.90;1.00
20839;DHT22;10580;51.092;6.828;2023-06-22T10:50:57;25.00;1.00
20839;DHT22;10580;51.092;6.828;2023-06-22T10:56:57;24.70;1.00
20839;DHT22;10580;51.092;6.828;2023-06-22T10:59:35;24.50;1.00
20839;DHT22;10580;51.092;6.828;2023-06-22T11:02:12;24.20;1.00
20839;DHT22;10580;51.092;6.828;2023-06-22T11:10:53;23.50;1.00
20839;DHT22;10580;51.092;6.828;2023-06-22T11:13:19;23.40;1.00
20839;DHT22;10580;51.092;6.828;2023-06-22T11:15:47;23.30;99.50
20839;DHT22;10580;51.092;6.828;2023-06-22T11:18:41;23.30;1.00
20839;DHT22;10580;51.092;6.828;2023-06-22T11:21:07;23.30;99.90
20839;DHT22;10580;51.092;6.828;2023-06-22T11:23:43;23.20;99.90
20839;DHT22;10580;51.092;6.828;2023-06-22T11:26:41;23.10;1.00
20839;DHT22;10580;51.092;6.828;2023-06-22T11:29:51;23.00;1.00
20839;DHT22;10580;51.092;6.828;2023-06-22T11:32:18;23.10;99.90
20839;DHT22;10580;51.092;6.828;2023-06-22T11:34:54;23.10;99.90
20839;DHT22;10580;51.092;6.828;2023-06-22T11:41:14;23.20;99.90
20839;DHT22;10580;51.092;6.828;2023-06-22T11:43:52;23.20;1.00
20839;DHT22;10580;51.092;6.828;2023-06-22T11:49:53;23.30;1.00
20839;DHT22;10580;51.092;6.828;2023-06-22T11:52:52;23.40;1.00
20839;DHT22;10580;51.092;6.828;2023-06-22T11:55:18;23.60;1.00
20839;DHT22;10580;51.092;6.828;2023-06-22T11:58:05;23.90;99.90
20839;DHT22;10580;51.092;6.828;2023-06-22T12:01:06;24.00;1.00
20839;DHT22;10580;51.092;6.828;2023-06-22T12:03:46;23.90;72.50
20839;DHT22;10580;51.092;6.828;2023-06-22T12:06:25;23.80;1.00
20839;DHT22;10580;51.092;6.828;2023-06-22T12:09:09;23.50;1.00
20839;DHT22;10580;51.092;6.828;2023-06-22T12:14:46;23.10;99.90
20839;DHT22;10580;51.092;6.828;2023-06-22T12:17:27;23.10;1.00
20839;DHT22;10580;51.092;6.828;2023-06-22T12:20:13;23.20;1.00
20839;DHT22;10580;51.092;6.828;2023-06-22T12:22:50;23.50;1.00
20839;DHT22;10580;51.092;6.828;2023-06-22T12:25:17;23.80;99.90
20839;DHT22;10580;51.092;6.828;2023-06-22T12:27:43;24.20;1.00
20839;DHT22;10580;51.092;6.828;2023-06-22T12:30:08;24.50;5.60
20839;DHT22;10580;51.092;6.828;2023-06-22T12:32:37;24.70;99.90
20839;DHT22;10580;51.092;6.828;2023-06-22T12:35:03;24.80;99.90
20839;DHT22;10580;51.092;6.828;2023-06-22T12:37:29;24.90;99.90
20839;DHT22;10580;51.092;6.828;2023-06-22T12:39:57;24.80;1.00
20839;DHT22;10580;51.092;6.828;2023-06-22T12:42:22;24.80;1.00
20839;DHT22;10580;51.092;6.828;2023-06-22T12:44:51;24.90;99.90
20839;DHT22;10580;51.092;6.828;2023-06-22T12:47:17;25.00;99.90
20839;DHT22;10580;51.092;6.828;2023-06-22T12:49:42;25.10;99.90
20839;DHT22;10580;51.092;6.828;2023-06-22T12:52:10;25.20;99.90
20839;DHT22;10580;51.092;6.828;2023-06-22T12:54:36;25.10;99.90
20839;DHT22;10580;51.092;6.828;2023-06-22T12:57:02;25.00;91.60
20839;DHT22;10580;51.092;6.828;2023-06-22T12:59:28;24.80;99.90
20839;DHT22;10580;51.092;6.828;2023-06-22T13:01:53;24.70;1.00
20839;DHT22;10580;51.092;6.828;2023-06-22T13:04:26;24.80;1.00
20839;DHT22;10580;51.092;6.828;2023-06-22T13:06:52;24.80;1.00
20839;DHT22;10580;51.092;6.828;2023-06-22T13:09:18;24.80;99.90
20839;DHT22;10580;51.092;6.828;2023-06-22T13:11:44;24.70;99.90
20839;DHT22;10580;51.092;6.828;2023-06-22T13:14:09;24.70;1.00
20839;DHT22;10580;51.092;6.828;2023-06-22T13:16:35;24.60;99.90
20839;DHT22;10580;51.092;6.828;2023-06-22T13:19:01;24.70;1.00
20839;DHT22;10580;51.092;6.828;2023-06-22T13:21:26;24.90;1.00
20839;DHT22;10580;51.092;6.828;2023-06-22T13:23:55;25.10;1.00
20839;DHT22;10580;51.092;6.828;2023-06-22T13:26:24;25.10;99.90
20839;DHT22;10580;51.092;6.828;2023-06-22T13:28:50;25.10;99.90
20839;DHT22;10580;51.092;6.828;2023-06-22T13:31:15;25.00;99.90
20839;DHT22;10580;51.092;6.828;2023-06-22T13:33:44;24.90;1.00
20839;DHT22;10580;51.092;6.828;2023-06-22T13:36:18;24.80;1.00
20839;DHT22;10580;51.092;6.828;2023-06-22T13:38:43;24.80;99.90
20839;DHT22;10580;51.092;6.828;2023-06-22T13:41:15;24.80;99.90
20839;DHT22;10580;51.092;6.828;2023-06-22T13:43:40;24.70;1.00
20839;DHT22;10580;51.092;6.828;2023-06-22T13:46:06;24.70;1.00
20839;DHT22;10580;51.092;6.828;2023-06-22T13:48:35;24.70;99.90
20839;DHT22;10580;51.092;6.828;2023-06-22T13:51:08;24.70;1.00
20839;DHT22;10580;51.092;6.828;2023-06-22T13:53:33;24.90;1.00
20839;DHT22;10580;51.092;6.828;2023-06-22T13:56:01;25.20;1.00
20839;DHT22;10580;51.092;6.828;2023-06-22T13:58:29;25.60;99.90
20839;DHT22;10580;51.092;6.828;2023-06-22T14:00:55;26.20;1.00
20839;DHT22;10580;51.092;6.828;2023-06-22T14:03:21;26.60;1.00
20839;DHT22;10580;51.092;6.828;2023-06-22T14:06:12;26.80;1.00
20839;DHT22;10580;51.092;6.828;2023-06-22T14:08:41;26.50;99.90
20839;DHT22;10580;51.092;6.828;2023-06-22T14:11:07;26.20;99.90
20839;DHT22;10580;51.092;6.828;2023-06-22T14:13:32;26.40;1.00
20839;DHT22;10580;51.092;6.828;2023-06-22T14:15:58;26.50;99.90
20839;DHT22;10580;51.092;6.828;2023-06-22T14:18:29;26.50;99.90
20839;DHT22;10580;51.092;6.828;2023-06-22T14:20:55;26.30;99.90
20839;DHT22;10580;51.092;6.828;2023-06-22T14:26:17;25.40;99.90
20839;DHT22;10580;51.092;6.828;2023-06-22T14:28:44;25.00;99.90
20839;DHT22;10580;51.092;6.828;2023-06-22T14:31:21;25.00;1.00
20839;DHT22;10580;51.092;6.828;2023-06-22T14:33:50;24.80;1.00
20839;DHT22;10580;51.092;6.828;2023-06-22T14:36:19;24.80;1.00
20839;DHT22;10580;51.092;6.828;2023-06-22T14:38:44;24.70;1.00
20839;DHT22;10580;51.092;6.828;2023-06-22T14:41:22;24.90;1.00
20839;DHT22;10580;51.092;6.828;2023-06-22T14:43:53;24.80;1.00
20839;DHT22;10580;51.092;6.828;2023-06-22T14:46:19;24.90;1.00
20839;DHT22;10580;51.092;6.828;2023-06-22T14:48:45;24.80;1.00
20839;DHT22;10580;51.092;6.828;2023-06-22T14:54:35;24.50;1.00
20839;DHT22;10580;51.092;6.828;2023-06-22T14:57:01;24.60;1.00
20839;DHT22;10580;51.092;6.828;2023-06-22T14:59:31;24.70;1.00
20839;DHT22;10580;51.092;6.828;2023-06-22T15:02:00;24.60;1.00
20839;DHT22;10580;51.092;6.828;2023-06-22T15:04:44;24.90;1.00
20839;DHT22;10580;51.092;6.828;2023-06-22T15:07:17;25.00;1.00
20839;DHT22;10580;51.092;6.828;2023-06-22T15:09:43;25.00;1.00
20839;DHT22;10580;51.092;6.828;2023-06-22T15:12:10;24.90;1.00
20839;DHT22;10580;51.092;6.828;2023-06-22T15:14:42;25.00;1.00
20839;DHT22;10580;51.092;6.828;2023-06-22T15:17:09;24.80;99.90
20839;DHT22;10580;51.092;6.828;2023-06-22T15:19:41;24.60;1.00
20839;DHT22;10580;51.092;6.828;2023-06-22T15:22:07;24.40;1.00
20839;DHT22;10580;51.092;6.828;2023-06-22T15:24:33;24.30;1.00
20839;DHT22;10580;51.092;6.828;2023-06-22T15:27:02;24.30;1.00
20839;DHT22;10580;51.092;6.828;2023-06-22T15:29:28;24.20;1.00
20839;DHT22;10580;51.092;6.828;2023-06-22T15:32:10;24.10;1.00
20839;DHT22;10580;51.092;6.828;2023-06-22T15:34:50;23.90;1.00
20839;DHT22;10580;51.092;6.828;2023-06-22T15:37:23;23.80;12.70
20839;DHT22;10580;51.092;6.828;2023-06-22T15:39:55;23.60;99.90
20839;DHT22;10580;51.092;6.828;2023-06-22T15:42:24;23.40;1.00
20839;DHT22;10580;51.092;6.828;2023-06-22T15:48:15;22.70;1.00
20839;DHT22;10580;51.092;6.828;2023-06-22T15:50:43;22.40;1.00
20839;DHT22;10580;51.092;6.828;2023-06-22T16:03:05;21.80;99.90
20839;DHT22;10580;51.092;6.828;2023-06-22T16:37:35;21.30;1.00
20839;DHT22;10580;51.092;6.828;2023-06-22T16:40:41;21.30;1.00
20839;DHT22;10580;51.092;6.828;2023-06-22T16:49:04;21.50;1.00
20839;DHT22;10580;51.092;6.828;2023-06-22T16:51:32;21.50;1.00
20839;DHT22;10580;51.092;6.828;2023-06-22T16:53:59;21.50;1.00
20839;DHT22;10580;51.092;6.828;2023-06-22T16:56:28;21.40;1.00
20839;DHT22;10580;51.092;6.828;2023-06-22T16:58:58;21.40;1.00
20839;DHT22;10580;51.092;6.828;2023-06-22T17:01:34;21.40;1.00
20839;DHT22;10580;51.092;6.828;2023-06-22T17:04:10;21.30;1.00
20839;DHT22;10580;51.092;6.828;2023-06-22T17:10:13;21.30;99.90
20839;DHT22;10580;51.092;6.828;2023-06-22T17:12:50;21.30;99.90
20839;DHT22;10580;51.092;6.828;2023-06-22T17:15:20;21.30;99.90
20839;DHT22;10580;51.092;6.828;2023-06-22T17:17:49;21.30;99.90
20839;DHT22;10580;51.092;6.828;2023-06-22T17:20:15;21.20;99.90
20839;DHT22;10580;51.092;6.828;2023-06-22T17:23:00;21.30;99.90
20839;DHT22;10580;51.092;6.828;2023-06-22T17:25:29;21.20;99.90
20839;DHT22;10580;51.092;6.828;2023-06-22T17:28:01;21.20;93.20
20839;DHT22;10580;51.092;6.828;2023-06-22T17:30:28;21.20;97.90
20839;DHT22;10580;51.092;6.828;2023-06-22T17:32:59;21.20;99.90
20839;DHT22;10580;51.092;6.828;2023-06-22T17:35:25;21.20;90.20
20839;DHT22;10580;51.092;6.828;2023-06-22T17:37:56;21.20;1.00
20839;DHT22;10580;51.092;6.828;2023-06-22T17:40:26;21.20;1.00
20839;DHT22;10580;51.092;6.828;2023-06-22T17:43:08;21.20;1.00
20839;DHT22;10580;51.092;6.828;2023-06-22T17:45:43;21.20;1.00
20839;DHT22;10580;51.092;6.828;2023-06-22T17:48:12;21.10;1.00
20839;DHT22;10580;51.092;6.828;2023-06-22T17:50:39;21.00;1.00
20839;DHT22;10580;51.092;6.828;2023-06-22T17:53:09;20.90;1.00
20839;DHT22;10580;51.092;6.828;2023-06-22T17:55:35;20.90;1.00
20839;DHT22;10580;51.092;6.828;2023-06-22T17:58:01;20.80;1.00
20839;DHT22;10580;51.092;6.828;2023-06-22T18:00:27;20.90;1.00
20839;DHT22;10580;51.092;6.828;2023-06-22T18:02:54;20.80;1.00
20839;DHT22;10580;51.092;6.828;2023-06-22T18:05:30;20.80;1.00
20839;DHT22;10580;51.092;6.828;2023-06-22T18:07:58;20.80;1.00
20839;DHT22;10580;51.092;6.828;2023-06-22T18:10:29;20.80;1.00
20839;DHT22;10580;51.092;6.828;2023-06-22T18:12:55;20.70;1.00
20839;DHT22;10580;51.092;6.828;2023-06-22T18:15:22;20.80;1.00
20839;DHT22;10580;51.092;6.828;2023-06-22T18:17:53;20.70;1.00
20839;DHT22;10580;51.092;6.828;2023-06-22T18:20:22;20.60;1.00
20839;DHT22;10580;51.092;6.828;2023-06-22T18:22:48;20.60;1.00
20839;DHT22;10580;51.092;6.828;2023-06-22T18:25:17;20.70;1.00
20839;DHT22;10580;51.092;6.828;2023-06-22T18:27:43;20.70;1.00
20839;DHT22;10580;51.092;6.828;2023-06-22T18:30:13;20.60;99.90
20839;DHT22;10580;51.092;6.828;2023-06-22T18:39:26;20.40;97.50
20839;DHT22;10580;51.092;6.828;2023-06-22T18:41:55;20.50;99.90
20839;DHT22;10580;51.092;6.828;2023-06-22T18:44:28;20.40;1.00
20839;DHT22;10580;51.092;6.828;2023-06-22T18:46:57;20.40;1.00
20839;DHT22;10580;51.092;6.828;2023-06-22T18:49:25;20.20;1.00
20839;DHT22;10580;51.092;6.828;2023-06-22T18:54:36;20.10;72.20
20839;DHT22;10580;51.092;6.828;2023-06-22T18:57:23;20.00;99.90
20839;DHT22;10580;51.092;6.828;2023-06-22T18:59:59;20.00;99.90
20839;DHT22;10580;51.092;6.828;2023-06-22T19:10:43;19.70;1.00
20839;DHT22;10580;51.092;6.828;2023-06-22T19:18:22;19.30;1.00
20839;DHT22;10580;51.092;6.828;2023-06-22T19:20:52;19.20;1.00
20839;DHT22;10580;51.092;6.828;2023-06-22T19:25:54;19.00;1.00